METAR AND TAF INFORMATION
METAR FOR DGAA
ADDS - METARS form results

(0023 UTC 31 January 2023)
Data provider http://aviationweather.gov/metar/data/
 
METAR text: DGAA 310000Z 23008KT 9999 SCT009 27/26 Q1011 NOSIG
Conditions at: DGAA (ACCRA/KOTOKA INT, GH) observed 0000 UTC 31 January 2023
Temperature: 27.0°C (81°F)
Dewpoint: 26.0°C (79°F) [RH = 94%]
Pressure (altimeter): 29.85 inches Hg (1011.0 mb)
Winds: from the SW (230 degrees) at 9 MPH (8 knots; 4.1 m/s)
Visibility: 6 or more miles (10+ km)
Ceiling: at least 12,000 feet AGL
Clouds: scattered clouds at 900 feet AGL
Weather: no significant weather observed at this time

 AIRPORT MAP

 RUNWAY INFORMATION
Runway 03 Runway length 11165 ft Runway width 200 ft
Runway elevation 177 ft Runway displaced threshold 0 ft Runway heading 22
Runway 21 Runway length 11165 ft Runway width 200 ft
Runway elevation 197 ft Runway displaced threshold 1349 ft Runway heading 202

 AIRPORT FREQUENCIES
Type APP Name ACCRA APP Frequency 119.5 MHZ
Type GND Name ACCRA GND Frequency 121.9 MHZ
Type TWR Name ACCRA TWR Frequency 119.1 MHZ

 AIRPORT NEAR NAVIGATION AIDS
Type NDB Name Accra Frequency 409 KHZ
Type VOR-DME Name Accra Frequency 113100 KHZ



Powered by Virtual Airlines Manager [v2.6.2]